Latest Coastal Weather Observations for Yanakie

IDV60701

Issued at 11:25 pm EST Thursday 31 July 2014 (issued every 10 minutes, with the page automatically refreshed every 10 minutes)

About coastal observations | Map of coastal stations | Coastal observations for VIC | Marine services | Other Formats
Station Details ID: 085301 Name: YANAKIE Lat: -38.81 Lon: 146.19 Height: 13.3 m
Data from the previous 72 hours. | See also: Recent months at Yanakie
Date/Time
EST
Temp

°C
Wind Pressure Rain
since 9am
mm
Weather Cloud Vis
km
Sea
Height
m
Swell
Dir
 
Speed
knots
Gust
knots
hPa Trend Height
m
Period
s
Dir
31/11:00pm 7.2 NW 18 25 999.1 - 13.4 - - - - - - -
31/10:30pm 7.9 NW 16 23 998.7 - 12.8 - - - - - - -
31/10:00pm 7.5 NW 15 24 998.5 - 12.8 - - - - - - -
31/09:30pm 7.5 NW 18 24 998.0 - 12.8 - - - - - - -
31/09:00pm 7.4 NNW 17 25 998.0 - 12.8 - - - - - - -
31/08:47pm 7.3 NNW 16 27 997.8 - 12.8 - - - - - - -
31/08:30pm 7.2 NW 17 23 997.9 - 12.8 - - - - - - -
31/08:14pm 7.4 NW 18 28 997.8 - 12.8 - - - - - - -
31/08:00pm 7.3 NNW 18 24 997.5 - 12.8 - - - - - - -
31/07:45pm 7.3 NNW 18 30 997.3 - 12.8 - - - - - - -
31/07:30pm 7.2 NNW 18 25 997.3 - 12.6 - - - - - - -
31/07:00pm 7.1 NNW 17 23 997.7 - 12.6 - - - - - - -
31/06:30pm 7.2 WNW 18 26 997.9 - 11.2 - - - - - - -
31/06:17pm 7.2 WNW 17 30 997.9 - 10.8 - - - - - - -
31/06:00pm 7.6 WNW 16 22 997.1 - 9.4 Rain - - - - - -
31/05:35pm 7.8 WNW 15 27 997.1 - 8.2 - - - - - - -
31/05:30pm 8.0 WNW 13 17 997.2 - 8.0 - - - - - - -
31/05:00pm 8.3 W 26 37 996.5 - 5.8 - - - - - - -
31/04:54pm 8.6 W 24 35 996.5 - 5.6 - - - - - - -
31/04:30pm 8.9 W 24 33 995.9 - 4.6 - - - - - - -
31/04:00pm 8.6 W 28 39 995.3 - 4.0 - - - - - - -
31/03:30pm 9.1 W 33 44 994.5 - 3.2 - - - - - - -
31/03:00pm 10.2 W 30 42 993.0 - 1.6 Rain - - - - - -
31/02:47pm 12.3 W 24 35 992.3 - 0.0 - - - - - - -
31/02:44pm 16.3 W 20 26 992.0 - 0.0 - - - - - - -
31/02:30pm 16.9 NW 26 42 990.0 - 0.0 - - - - - - -
31/02:00pm 17.9 NNW 31 46 990.0 - 0.0 - - - - - - -
31/01:30pm 17.8 NNW 28 45 990.6 - 0.0 - - - - - - -
31/01:00pm 17.5 NNW 30 49 990.9 - 0.0 - - - - - - -
31/12:30pm 17.3 NNW 32 45 991.5 - 0.0 - - - - - - -
31/12:00pm 17.3 NNW 33 47 993.0 - 0.0 - - - - - - -
31/11:30am 17.2 NNW 35 47 993.9 - 0.0 - - - - - - -
31/11:00am 17.3 NNW 33 46 995.0 - 0.0 - - - - - - -
31/10:30am 17.3 NNW 32 50 995.3 - 0.0 - - - - - - -
31/10:00am 17.1 NNW 31 45 996.1 - 0.0 - - - - - - -
31/09:30am 16.8 NNW 31 45 996.3 - 0.0 - - - - - - -
31/09:00am 16.3 NNW 28 40 997.6 - 0.2 - - - - - - -
31/08:30am 15.7 NW 26 37 998.1 - 0.2 - - - - - - -
31/08:00am 15.2 NW 27 42 998.6 - 0.2 - - - - - - -
31/07:35am 14.7 NW 24 36 999.0 - 0.2 - - - - - - -
31/07:30am 14.5 NW 24 33 999.1 - 0.2 - - - - - - -
31/07:00am 14.7 NNW 27 40 999.2 - 0.2 - - - - - - -
31/06:30am 14.5 NNW 28 41 999.3 - 0.2 - - - - - - -
31/06:00am 14.1 NNW 22 38 999.9 - 0.2 - - - - - - -
31/05:30am 14.5 NNW 24 36 1000.2 - 0.2 - - - - - - -
31/05:00am 14.6 NNW 24 35 1000.5 - 0.2 - - - - - - -
31/04:30am 14.5 NNW 24 39 1000.9 - 0.2 - - - - - - -
31/04:17am 14.7 NNW 25 35 1001.3 - 0.2 - - - - - - -
31/04:00am 14.8 NNW 26 35 1001.3 - 0.2 - - - - - - -
31/03:32am 14.7 NNW 23 34 1001.9 - 0.2 - - - - - - -
31/03:30am 14.9 NNW 24 34 1001.8 - 0.2 - - - - - - -
31/03:00am 14.7 NNW 26 37 1002.3 - 0.2 - - - - - - -
31/02:35am 14.8 NNW 23 38 1002.7 - 0.2 - - - - - - -
31/02:30am 14.7 NNW 23 32 1002.8 - 0.2 - - - - - - -
31/02:09am 14.6 NNW 22 32 1003.0 - 0.2 - - - - - - -
31/02:00am 14.7 NNW 22 30 1003.2 - 0.2 - - - - - - -
31/01:32am 14.3 NW 21 31 1004.0 - 0.2 - - - - - - -
31/01:30am 14.4 NW 22 31 1004.0 - 0.2 - - - - - - -
31/01:00am 14.2 NW 20 30 1004.4 - 0.2 - - - - - - -
31/12:30am 15.3 NW 22 32 1004.7 - 0.2 - - - - - - -
31/12:10am 14.4 NW 18 29 1005.0 - 0.2 - - - - - - -
31/12:00am 14.2 NW 23 31 1005.1 - 0.2 - - - - - - -
 
Date/Time
EST
Temp

°C
Wind Pressure Rain
since 9am
mm
Weather Cloud Vis
km
Sea
Height
m
Swell
Dir
 
Speed
knots
Gust
knots
hPa Trend Height
m
Period
s
Dir
30/11:32pm 15.7 NNW 19 32 1004.9 - 0.2 - - - - - - -
30/11:30pm 15.4 NNW 18 27 1005.1 - 0.2 - - - - - - -
30/11:06pm 15.5 NW 21 31 1005.6 - 0.2 - - - - - - -
30/11:00pm 15.4 NW 22 29 1005.7 - 0.2 - - - - - - -
30/10:33pm 15.3 NW 19 30 1005.9 - 0.2 - - - - - - -
30/10:30pm 15.2 NW 20 29 1006.0 - 0.2 - - - - - - -
30/10:00pm 15.4 NW 24 34 1006.2 - 0.2 - - - - - - -
30/09:30pm 15.5 NW 24 38 1006.4 - 0.2 - - - - - - -
30/09:02pm 15.3 NW 21 32 1006.4 - 0.2 - - - - - - -
30/09:00pm 15.4 NW 21 28 1006.5 - 0.2 - - - - - - -
30/08:30pm 15.0 NW 18 26 1006.5 - 0.2 - - - - - - -
30/08:00pm 14.9 NW 16 23 1006.6 - 0.2 - - - - - - -
30/07:30pm 15.2 NW 21 30 1006.4 - 0.2 - - - - - - -
30/07:13pm 15.0 NW 20 30 1006.6 - 0.2 - - - - - - -
30/07:00pm 14.8 NW 19 29 1006.6 - 0.2 - - - - - - -
30/06:37pm 14.7 NW 18 29 1006.8 - 0.2 - - - - - - -
30/06:30pm 14.6 NW 17 24 1006.8 - 0.2 - - - - - - -
30/06:00pm 14.4 NW 12 17 1006.8 - 0.2 Recent precip. - - - - - -
30/05:30pm 14.3 NW 14 20 1006.8 - 0.0 - - - - - - -
30/05:00pm 14.3 NW 15 24 1006.9 - 0.0 - - - - - - -
30/04:30pm 14.7 NW 17 26 1007.0 - 0.0 - - - - - - -
30/04:00pm 15.3 NW 16 25 1006.8 - 0.0 - - - - - - -
30/03:30pm 15.7 NW 20 26 1006.8 - 0.0 - - - - - - -
30/03:00pm 16.1 NW 20 34 1006.8 - 0.0 - - - - - - -
30/02:58pm 16.2 NW 19 34 1006.8 - 0.0 - - - - - - -
30/02:30pm 16.8 WNW 18 27 1006.7 - 0.0 - - - - - - -
30/02:07pm 16.8 WNW 18 28 1006.8 - 0.0 - - - - - - -
30/02:00pm 16.6 WNW 22 29 1006.9 - 0.0 - - - - - - -
30/01:32pm 16.8 NW 23 33 1006.9 - 0.0 - - - - - - -
30/01:30pm 16.8 WNW 23 30 1007.1 - 0.0 - - - - - - -
30/01:20pm 16.7 WNW 22 33 1007.2 - 0.0 - - - - - - -
30/01:00pm 16.6 WNW 21 29 1007.8 - 0.0 - - - - - - -
30/12:43pm 16.4 WNW 22 33 1008.2 - 0.0 - - - - - - -
30/12:30pm 16.4 NW 23 32 1008.4 - 0.0 - - - - - - -
30/12:28pm 16.3 NW 22 32 1008.4 - 0.0 - - - - - - -
30/12:00pm 16.0 NW 19 25 1008.9 - 0.0 - - - - - - -
30/11:40am 15.7 NW 22 32 1009.1 - 0.0 - - - - - - -
30/11:30am 15.4 WNW 23 33 1009.2 - 0.0 - - - - - - -
30/11:01am 14.9 NW 20 32 1009.6 - 0.0 - - - - - - -
30/11:00am 15.1 NW 19 28 1009.7 - 0.0 - - - - - - -
30/10:30am 14.7 NW 22 35 1009.6 - 0.0 - - - - - - -
30/10:21am 14.9 NW 17 29 1009.9 - 0.0 - - - - - - -
30/10:00am 14.0 WNW 17 22 1010.1 - 0.0 - - - - - - -
30/09:30am 13.9 WNW 17 25 1010.1 - 0.0 - - - - - - -
30/09:07am 13.4 NW 17 27 1009.6 - 0.0 - - - - - - -
30/09:00am 13.0 NW 16 24 1009.6 - 1.4 - - - - - - -
30/08:30am 12.6 WNW 15 20 1009.9 - 1.4 - - - - - - -
30/08:00am 12.2 NW 16 22 1009.6 - 1.4 - - - - - - -
30/07:30am 11.9 NW 18 25 1009.5 - 1.4 - - - - - - -
30/07:00am 11.8 NW 17 25 1009.4 - 1.4 - - - - - - -
30/06:41am 11.8 NW 16 27 1009.1 - 1.4 - - - - - - -
30/06:30am 11.9 NW 16 22 1009.1 - 1.4 - - - - - - -
30/06:00am 11.9 WNW 16 21 1009.1 - 1.4 - - - - - - -
30/05:30am 11.9 WNW 14 20 1008.8 - 1.4 - - - - - - -
30/05:00am 12.0 WNW 15 21 1008.7 - 1.4 - - - - - - -
30/04:30am 12.3 WNW 13 19 1008.6 - 1.4 - - - - - - -
30/04:00am 12.1 WNW 13 18 1008.3 - 1.4 - - - - - - -
30/03:30am 12.3 WNW 16 23 1008.2 - 1.4 - - - - - - -
30/03:00am 12.7 WNW 16 23 1008.1 - 1.4 - - - - - - -
30/02:30am 12.9 WNW 19 29 1008.0 - 1.4 - - - - - - -
30/02:11am 12.7 WNW 20 31 1008.0 - 1.4 - - - - - - -
30/02:00am 12.8 WNW 21 30 1007.9 - 1.4 - - - - - - -
30/01:54am 12.7 WNW 19 30 1007.8 - 1.4 - - - - - - -
30/01:30am 13.0 WNW 22 31 1008.0 - 1.2 - - - - - - -
30/01:01am 13.3 NW 23 35 1007.3 - 1.2 - - - - - - -
30/01:00am 13.4 NW 23 32 1007.2 - 1.2 - - - - - - -
30/12:30am 13.4 WNW 24 35 1007.1 - 1.2 - - - - - - -
30/12:11am 13.5 WNW 23 34 1006.8 - 1.2 - - - - - - -
30/12:00am 13.7 NW 23 31 1007.0 - 1.2 - - - - - - -
 
Date/Time
EST
Temp

°C
Wind Pressure Rain
since 9am
mm
Weather Cloud Vis
km
Sea
Height
m
Swell
Dir
 
Speed
knots
Gust
knots
hPa Trend Height
m
Period
s
Dir
29/11:37pm 13.2 NW 18 29 1007.0 - 1.2 - - - - - - -
29/11:30pm 13.1 NW 19 27 1007.2 - 1.2 - - - - - - -
29/11:00pm 13.6 WNW 20 27 1007.2 - 1.2 - - - - - - -
29/10:30pm 14.2 WNW 20 29 1006.8 - 1.2 - - - - - - -
29/10:00pm 14.3 WNW 21 33 1006.7 - 1.2 - - - - - - -
29/09:30pm 13.9 NW 25 38 1006.1 - 1.2 - - - - - - -
29/09:03pm 14.1 NW 23 33 1005.3 - 1.2 - - - - - - -
29/09:00pm 14.3 NW 24 34 1005.1 - 1.2 - - - - - - -
29/08:32pm 14.2 NW 25 36 1005.0 - 1.2 - - - - - - -
29/08:30pm 14.1 NW 25 34 1005.0 - 1.2 - - - - - - -
29/08:22pm 14.2 NW 23 34 1005.0 - 1.2 - - - - - - -
29/08:00pm 14.0 NW 21 31 1005.1 - 1.2 - - - - - - -
29/07:34pm 13.8 NW 20 31 1005.2 - 1.2 - - - - - - -
29/07:30pm 13.8 NW 22 31 1005.1 - 1.2 - - - - - - -
29/07:00pm 12.8 NW 22 32 1005.0 - 1.0 - - - - - - -
29/06:41pm 13.8 NW 23 40 1004.3 - 0.0 - - - - - - -
29/06:30pm 13.6 NW 24 32 1004.4 - 0.0 - - - - - - -
29/06:00pm 13.4 NW 25 36 1003.8 - 0.0 - - - - - - -
29/05:30pm 12.8 NW 26 37 1003.9 - 0.0 - - - - - - -
29/05:00pm 12.8 NW 28 39 1003.5 - 0.0 - - - - - - -
29/04:30pm 13.9 NW 25 36 1003.2 - 0.0 - - - - - - -
29/04:00pm 13.5 NW 26 39 1003.3 - 0.0 - - - - - - -
29/03:30pm 14.0 NNW 26 37 1003.2 - 0.0 - - - - - - -
29/03:07pm 14.5 NW 27 38 1003.0 - 0.0 - - - - - - -
29/03:00pm 14.8 NNW 29 38 1002.9 - 0.0 - - - - - - -
29/02:30pm 14.7 NW 28 41 1002.7 - 0.0 - - - - - - -
29/02:00pm 15.0 NNW 28 41 1002.8 - 0.0 - - - - - - -
29/01:30pm 15.1 NNW 29 40 1003.0 - 0.0 - - - - - - -
29/01:26pm 15.2 NNW 27 40 1002.9 - 0.0 - - - - - - -
29/01:00pm 14.4 NNW 19 29 1003.6 - 0.0 - - - - - - -
29/12:38pm 14.6 NNW 22 32 1003.3 - 0.0 - - - - - - -
29/12:30pm 14.3 NNW 23 32 1003.7 - 0.0 - - - - - - -
29/12:00pm 14.5 NNW 23 37 1004.4 - 0.0 - - - - - - -
29/11:30am 14.5 NW 24 37 1005.0 - 0.0 - - - - - - -
29/11:08am 14.8 NNW 27 38 1005.1 - 0.0 - - - - - - -
29/11:00am 14.9 NW 25 33 1005.4 - 0.0 - - - - - - -
29/10:30am 15.1 NW 23 37 1005.3 - 0.0 - - - - - - -
29/10:15am 14.2 NW 24 36 1005.0 - 0.0 - - - - - - -
29/10:00am 14.3 NNW 26 34 1005.2 - 0.0 - - - - - - -
29/09:31am 13.9 NW 25 36 1005.7 - 0.0 - - - - - - -
29/09:30am 13.9 NW 25 34 1005.7 - 0.0 - - - - - - -
29/09:00am 13.7 NW 22 36 1006.1 - 0.2 - - - - - - -
29/08:33am 13.6 NNW 22 33 1006.0 - 0.2 - - - - - - -
29/08:30am 13.5 NNW 21 30 1006.1 - 0.2 - - - - - - -
29/08:14am 13.6 NNW 21 31 1006.0 - 0.2 - - - - - - -
29/08:00am 13.5 NNW 21 31 1006.0 - 0.2 - - - - - - -
29/07:38am 13.4 NNW 21 33 1006.0 - 0.2 - - - - - - -
29/07:30am 13.3 NNW 21 30 1005.9 - 0.2 - - - - - - -
29/07:00am 13.5 NNW 23 33 1005.8 - 0.2 - - - - - - -
29/06:42am 13.6 NW 21 34 1006.1 - 0.2 - - - - - - -
29/06:30am 13.5 NNW 21 30 1006.0 - 0.2 - - - - - - -
29/06:00am 13.4 NNW 21 32 1006.0 - 0.2 - - - - - - -
29/05:34am 13.3 NNW 21 31 1006.3 - 0.2 - - - - - - -
29/05:30am 13.5 NNW 22 31 1006.3 - 0.2 - - - - - - -
29/05:01am 13.6 NNW 20 30 1006.4 - 0.2 - - - - - - -
29/05:00am 13.6 NNW 21 30 1006.4 - 0.2 - - - - - - -
29/04:30am 13.5 NNW 20 31 1006.3 - 0.2 - - - - - - -
29/04:01am 13.2 NNW 19 30 1006.7 - 0.2 - - - - - - -
29/04:00am 13.2 NNW 20 30 1006.8 - 0.2 - - - - - - -
29/03:54am 13.2 NNW 20 31 1006.7 - 0.2 - - - - - - -
29/03:30am 13.1 NNW 22 30 1006.6 - 0.2 - - - - - - -
29/03:12am 13.1 NW 21 32 1006.7 - 0.2 - - - - - - -
29/03:00am 13.1 NW 21 30 1007.1 - 0.2 - - - - - - -
29/02:30am 13.0 NW 19 28 1007.7 - 0.2 - - - - - - -
29/02:00am 13.1 NW 17 24 1008.2 - 0.2 - - - - - - -
29/01:40am 13.2 NW 17 28 1008.4 - 0.2 - - - - - - -
29/01:30am 13.1 NNW 18 24 1008.6 - 0.2 - - - - - - -
29/01:00am 13.2 NW 19 25 1009.0 - 0.2 - - - - - - -
29/12:30am 13.2 NW 18 26 1009.4 - 0.2 - - - - - - -
29/12:18am 13.1 NW 18 29 1009.5 - 0.2 - - - - - - -
29/12:00am 13.4 NW 20 26 1009.6 - 0.2 - - - - - - -
 
Date/Time
EST
Temp

°C
Wind Pressure Rain
since 9am
mm
Weather Cloud Vis
km
Sea
Height
m
Swell
Dir
 
Speed
knots
Gust
knots
hPa Trend Height
m
Period
s
Dir
28/11:48pm 13.3 NW 18 28 1009.8 - 0.2 - - - - - - -
28/11:30pm 13.4 NW 19 27 1010.0 - 0.2 - - - - - - -

Other Formats:

Comma delimited format used in spreadsheet applications
http://www.bom.gov.au/fwo/IDV60701/IDV60701.94911.axf

JavaScript Object Notation format (JSON) in row-major order
http://www.bom.gov.au/fwo/IDV60701/IDV60701.94911.json